createdAt,value
2023-04-22T00:02:27.294Z,12.08
2023-04-22T00:04:57.575Z,11.92
2023-04-22T00:07:26.151Z,12.07
2023-04-22T00:09:54.494Z,12.12
2023-04-22T00:12:24.175Z,12.28
2023-04-22T00:14:52.465Z,12.49
2023-04-22T00:17:20.793Z,12.58
2023-04-22T00:19:49.071Z,12.79
2023-04-22T00:22:17.353Z,12.96
2023-04-22T00:24:45.613Z,12.76
2023-04-22T00:27:13.988Z,12.91
2023-04-22T00:29:43.702Z,13.20
2023-04-22T00:32:11.977Z,13.17
2023-04-22T00:34:40.306Z,13.29
2023-04-22T00:37:08.662Z,13.01
2023-04-22T00:39:39.773Z,12.53
2023-04-22T00:42:08.617Z,12.77
2023-04-22T00:44:37.821Z,12.87
2023-04-22T00:47:07.990Z,12.49
2023-04-22T00:49:37.074Z,12.59
2023-04-22T00:52:05.445Z,12.97
2023-04-22T00:54:35.530Z,12.94
2023-04-22T00:57:04.536Z,12.26
2023-04-22T00:59:33.038Z,11.89
2023-04-22T01:02:01.730Z,11.87
2023-04-22T01:04:31.965Z,12.36
2023-04-22T01:07:01.882Z,12.66
2023-04-22T01:09:30.717Z,12.90
2023-04-22T01:11:59.164Z,12.68
2023-04-22T01:14:27.569Z,12.83
2023-04-22T01:16:57.990Z,12.93
2023-04-22T01:19:29.469Z,12.91
2023-04-22T01:22:01.179Z,12.77
2023-04-22T01:24:30.905Z,12.70
2023-04-22T01:26:59.243Z,12.83
2023-04-22T01:29:28.065Z,12.81
2023-04-22T01:31:56.628Z,12.64
2023-04-22T01:34:25.066Z,12.56
2023-04-22T01:36:53.395Z,12.67
2023-04-22T01:39:21.805Z,12.74
2023-04-22T01:41:51.725Z,12.83
2023-04-22T01:44:20.082Z,12.85
2023-04-22T01:46:48.333Z,12.59
2023-04-22T01:49:16.598Z,12.93
2023-04-22T01:51:44.817Z,12.98
2023-04-22T01:54:13.288Z,12.73
2023-04-22T01:56:43.860Z,13.05
2023-04-22T01:59:13.552Z,12.84
2023-04-22T02:01:41.867Z,12.73
2023-04-22T02:04:10.233Z,12.77
2023-04-22T02:06:38.580Z,12.95
2023-04-22T02:09:07.013Z,13.05
2023-04-22T02:11:35.614Z,13.09
2023-04-22T02:14:04.085Z,13.18
2023-04-22T02:16:33.973Z,13.02
2023-04-22T02:19:02.295Z,12.52
2023-04-22T02:21:32.382Z,12.23
2023-04-22T02:24:00.625Z,12.20
2023-04-22T02:26:29.261Z,12.40
2023-04-22T02:28:57.513Z,12.38
2023-04-22T02:31:25.781Z,12.46
2023-04-22T02:33:55.509Z,12.69
2023-04-22T02:36:23.748Z,12.41
2023-04-22T02:38:52.102Z,12.72
2023-04-22T02:41:20.455Z,12.86
2023-04-22T02:43:48.722Z,12.95
2023-04-22T02:46:17.522Z,12.71
2023-04-22T02:48:46.007Z,12.84
2023-04-22T02:51:15.663Z,12.85
2023-04-22T02:53:43.957Z,12.93
2023-04-22T02:56:12.239Z,13.05
2023-04-22T02:58:40.570Z,12.98
2023-04-22T03:01:08.952Z,12.96
2023-04-22T03:03:37.569Z,12.97
2023-04-22T03:06:06.243Z,13.01
2023-04-22T03:08:35.936Z,13.11
2023-04-22T03:11:04.261Z,13.13
2023-04-22T03:13:32.703Z,12.98
2023-04-22T03:16:01.030Z,13.07
2023-04-22T03:18:29.505Z,13.12
2023-04-22T03:20:57.883Z,13.04
2023-04-22T03:23:26.274Z,12.64
2023-04-22T03:25:55.986Z,12.53
2023-04-22T03:28:24.259Z,12.42
2023-04-22T03:30:52.627Z,12.64
2023-04-22T03:33:20.939Z,12.65
2023-04-22T03:35:49.980Z,12.75
2023-04-22T03:38:18.384Z,12.66
2023-04-22T03:40:46.614Z,12.69
2023-04-22T03:43:16.337Z,12.63
2023-04-22T03:45:45.846Z,12.47
2023-04-22T03:48:14.250Z,12.18
2023-04-22T03:50:42.559Z,11.99
2023-04-22T03:53:10.857Z,11.96
2023-04-22T03:55:39.104Z,11.98
2023-04-22T03:58:07.398Z,12.14
2023-04-22T04:00:37.317Z,12.22
2023-04-22T04:03:06.079Z,12.16
2023-04-22T04:05:34.524Z,11.85
2023-04-22T04:08:02.853Z,11.25
2023-04-22T04:10:31.121Z,11.31
2023-04-22T04:12:59.419Z,11.43
2023-04-22T04:15:27.678Z,11.62
2023-04-22T04:17:57.385Z,11.89
2023-04-22T04:20:25.745Z,11.98
2023-04-22T04:22:54.063Z,11.81
2023-04-22T04:25:22.489Z,11.53
2023-04-22T04:27:51.980Z,11.53
2023-04-22T04:30:21.665Z,11.53
2023-04-22T04:32:50.084Z,11.66
2023-04-22T04:35:20.416Z,11.53
2023-04-22T04:37:48.676Z,11.90
2023-04-22T04:40:16.982Z,12.17
2023-04-22T04:42:45.207Z,12.23
2023-04-22T04:45:13.526Z,12.35
2023-04-22T04:47:41.877Z,12.53
2023-04-22T04:50:10.716Z,12.78
2023-04-22T04:52:40.396Z,12.83
2023-04-22T04:55:09.306Z,12.79
2023-04-22T04:57:38.529Z,12.94
2023-04-22T05:00:08.497Z,13.07
2023-04-22T05:02:36.931Z,13.37
2023-04-22T05:05:05.767Z,13.36
2023-04-22T05:07:34.239Z,13.21
2023-04-22T05:10:04.732Z,13.14
2023-04-22T05:12:33.002Z,13.54
2023-04-22T05:15:01.374Z,13.15
2023-04-22T05:17:30.650Z,13.85
2023-04-22T05:19:59.021Z,14.44
2023-04-22T05:22:27.388Z,14.46
2023-04-22T05:24:55.655Z,14.85
2023-04-22T05:27:25.828Z,15.18
2023-04-22T05:29:54.230Z,15.43
2023-04-22T05:32:22.734Z,15.55
2023-04-22T05:34:50.994Z,15.83
2023-04-22T05:37:19.383Z,15.72
2023-04-22T05:39:47.584Z,15.97
2023-04-22T05:42:15.906Z,15.96
2023-04-22T05:44:45.991Z,15.88
2023-04-22T05:47:14.898Z,15.84
2023-04-22T05:49:43.213Z,16.09
2023-04-22T05:52:11.438Z,16.54
2023-04-22T05:54:39.762Z,16.40
2023-04-22T05:57:08.343Z,16.38
2023-04-22T05:59:36.784Z,15.94
2023-04-22T06:02:06.768Z,16.12
2023-04-22T06:04:37.524Z,16.50
2023-04-22T06:07:06.465Z,16.94
2023-04-22T06:09:34.769Z,17.03
2023-04-22T06:12:03.298Z,17.13
2023-04-22T06:14:31.575Z,16.83
2023-04-22T06:16:59.882Z,17.37
2023-04-22T06:19:29.716Z,16.51
2023-04-22T06:21:57.982Z,16.24
2023-04-22T06:24:26.328Z,16.52
2023-04-22T06:26:54.687Z,16.94
2023-04-22T06:29:23.053Z,16.89
2023-04-22T06:31:51.626Z,17.13
2023-04-22T06:34:20.075Z,17.33
2023-04-22T06:36:49.723Z,17.22
2023-04-22T06:39:18.112Z,17.53
2023-04-22T06:41:46.400Z,17.94
2023-04-22T06:44:14.724Z,17.55
2023-04-22T06:46:42.983Z,17.32
2023-04-22T06:49:11.212Z,17.33
2023-04-22T06:51:39.721Z,17.92
2023-04-22T06:54:09.467Z,18.07
2023-04-22T06:56:37.806Z,18.17
2023-04-22T06:59:07.815Z,18.28
2023-04-22T07:01:36.293Z,18.84
2023-04-22T07:04:04.630Z,19.34
2023-04-22T07:06:33.107Z,19.48
2023-04-22T07:09:01.537Z,18.76
2023-04-22T07:11:31.625Z,19.44
2023-04-22T07:13:59.987Z,19.89
2023-04-22T07:16:29.026Z,18.23
2023-04-22T07:18:57.469Z,18.85
2023-04-22T07:21:26.392Z,18.89
2023-04-22T07:23:54.575Z,19.67
2023-04-22T07:26:22.877Z,20.06
2023-04-22T07:28:52.645Z,19.36
2023-04-22T07:31:20.979Z,20.02
2023-04-22T07:33:49.226Z,19.71
2023-04-22T07:36:17.584Z,19.83
2023-04-22T07:38:45.937Z,19.14
2023-04-22T07:41:14.234Z,18.58
2023-04-22T07:43:42.517Z,19.28
2023-04-22T07:46:12.277Z,19.53
2023-04-22T07:48:40.666Z,20.35
2023-04-22T07:51:09.018Z,20.46
2023-04-22T07:53:37.375Z,20.36
2023-04-22T07:56:06.254Z,20.43
2023-04-22T07:58:34.503Z,20.77
2023-04-22T08:01:02.892Z,20.75
2023-04-22T08:03:33.065Z,20.26
2023-04-22T08:06:01.473Z,20.06
2023-04-22T08:08:29.778Z,20.53
2023-04-22T08:10:58.181Z,19.70
2023-04-22T08:13:26.510Z,20.02
2023-04-22T08:15:54.854Z,20.71
2023-04-22T08:18:23.195Z,20.27
2023-04-22T08:20:52.874Z,19.75
2023-04-22T08:23:21.534Z,20.52
2023-04-22T08:25:50.173Z,20.40
2023-04-22T08:28:18.534Z,21.17
2023-04-22T08:30:46.814Z,21.41
2023-04-22T08:33:15.110Z,21.47
2023-04-22T08:35:43.376Z,22.31
2023-04-22T08:38:13.088Z,22.75
2023-04-22T08:40:42.947Z,22.39
2023-04-22T08:43:11.435Z,23.04
2023-04-22T08:45:40.970Z,24.36
2023-04-22T08:48:11.479Z,22.79
2023-04-22T08:50:40.777Z,22.99
2023-04-22T08:53:09.191Z,22.79
2023-04-22T08:55:41.279Z,22.95
2023-04-22T08:58:09.600Z,24.13
2023-04-22T09:00:37.969Z,23.55
2023-04-22T09:03:07.789Z,23.24
2023-04-22T09:05:38.707Z,23.62
2023-04-22T09:08:08.009Z,24.07
2023-04-22T09:10:40.136Z,23.64
2023-04-22T09:13:08.666Z,23.41
2023-04-22T09:15:36.974Z,23.35
2023-04-22T09:18:05.718Z,22.94
2023-04-22T09:20:51.307Z,23.09
2023-04-22T09:23:20.123Z,22.36
2023-04-22T09:25:49.809Z,22.76
2023-04-22T09:28:20.375Z,22.77
2023-04-22T09:30:48.961Z,23.49
2023-04-22T09:33:17.723Z,23.50
2023-04-22T09:35:46.079Z,23.50
2023-04-22T09:38:14.822Z,23.26
2023-04-22T09:40:45.054Z,23.24
2023-04-22T09:43:19.233Z,23.85
2023-04-22T09:45:47.569Z,24.37
2023-04-22T09:48:17.437Z,24.28
2023-04-22T09:50:48.346Z,24.66
2023-04-22T09:53:18.356Z,24.58
2023-04-22T09:55:49.822Z,23.90
2023-04-22T09:58:20.958Z,22.60
2023-04-22T10:00:52.246Z,22.78
2023-04-22T10:03:20.865Z,21.58
2023-04-22T10:05:49.336Z,22.27
2023-04-22T10:08:18.762Z,21.85
2023-04-22T10:10:47.331Z,20.87
2023-04-22T10:13:15.946Z,20.71
2023-04-22T10:15:51.005Z,20.49
2023-04-22T10:18:22.968Z,21.05
2023-04-22T10:20:52.504Z,21.36
2023-04-22T10:23:22.329Z,20.75
2023-04-22T10:25:52.122Z,20.34
2023-04-22T10:28:23.685Z,20.09
2023-04-22T10:30:53.551Z,20.60
2023-04-22T10:33:40.323Z,20.52
2023-04-22T10:36:11.417Z,20.56
2023-04-22T10:38:40.840Z,19.93
2023-04-22T10:41:16.489Z,19.29
2023-04-22T10:43:46.097Z,19.13
2023-04-22T10:46:52.303Z,19.72
2023-04-22T10:49:23.144Z,19.75
2023-04-22T10:51:52.773Z,19.40
2023-04-22T10:54:57.995Z,19.93
2023-04-22T10:57:37.874Z,19.30
2023-04-22T11:00:52.525Z,19.48
2023-04-22T11:03:28.613Z,20.20
2023-04-22T11:06:18.315Z,20.63
2023-04-22T11:08:47.846Z,20.24
2023-04-22T11:11:19.223Z,19.44
2023-04-22T11:13:52.069Z,18.49
2023-04-22T11:16:23.641Z,19.01
2023-04-22T11:18:52.097Z,19.24
2023-04-22T11:21:22.645Z,19.73
2023-04-22T11:23:54.104Z,21.39
2023-04-22T11:26:35.302Z,22.40
2023-04-22T11:29:03.832Z,22.24
2023-04-22T11:31:32.341Z,21.46
2023-04-22T11:34:00.726Z,21.51
2023-04-22T11:36:30.598Z,20.48
2023-04-22T11:39:00.937Z,21.30
2023-04-22T11:41:30.163Z,21.35
2023-04-22T11:43:58.459Z,20.65
2023-04-22T11:46:31.529Z,21.09
2023-04-22T11:49:13.865Z,20.08
2023-04-22T11:51:55.446Z,19.82
2023-04-22T11:54:34.106Z,19.90
2023-04-22T11:57:04.417Z,20.76
2023-04-22T11:59:32.666Z,22.17
2023-04-22T12:02:01.065Z,21.81
2023-04-22T12:04:29.442Z,22.44
2023-04-22T12:06:59.201Z,22.96
2023-04-22T12:09:28.722Z,23.45
2023-04-22T12:11:57.506Z,24.71
2023-04-22T12:14:32.785Z,24.20
2023-04-22T12:17:04.409Z,24.27
2023-04-22T12:19:33.494Z,23.14
2023-04-22T12:22:03.256Z,22.76
2023-04-22T12:24:31.828Z,21.89
2023-04-22T12:27:01.496Z,21.84
2023-04-22T12:29:32.986Z,21.37
2023-04-22T12:32:01.395Z,21.81
2023-04-22T12:34:29.665Z,23.14
2023-04-22T12:36:57.952Z,22.45
2023-04-22T12:39:27.726Z,22.35
2023-04-22T12:41:56.008Z,22.40
2023-04-22T12:44:25.131Z,22.48
2023-04-22T12:46:53.814Z,23.04
2023-04-22T12:49:22.236Z,21.94
2023-04-22T12:51:50.604Z,21.85
2023-04-22T12:54:19.172Z,22.41
2023-04-22T12:56:49.682Z,21.16
2023-04-22T12:59:17.969Z,21.85
2023-04-22T13:01:46.405Z,20.82
2023-04-22T13:04:14.876Z,20.58
2023-04-22T13:06:44.326Z,20.98
2023-04-22T13:09:13.132Z,21.09
2023-04-22T13:11:41.514Z,20.10
2023-04-22T13:14:11.501Z,20.68
2023-04-22T13:16:39.892Z,21.15
2023-04-22T13:19:08.374Z,21.26
2023-04-22T13:21:36.599Z,20.51
2023-04-22T13:24:05.044Z,19.82
2023-04-22T13:26:33.331Z,19.50
2023-04-22T13:29:02.878Z,19.36
2023-04-22T13:31:32.764Z,18.82
2023-04-22T13:34:01.139Z,19.27
2023-04-22T13:36:29.611Z,18.60
2023-04-22T13:38:58.793Z,18.57
2023-04-22T13:41:27.170Z,18.80
2023-04-22T13:43:56.227Z,18.63
2023-04-22T13:46:25.272Z,18.12
2023-04-22T13:48:55.140Z,17.96
2023-04-22T13:51:24.090Z,17.93
2023-04-22T13:53:52.414Z,17.40
2023-04-22T13:56:20.891Z,17.54
2023-04-22T13:58:50.416Z,17.69
2023-04-22T14:01:19.133Z,17.73
2023-04-22T14:03:50.868Z,17.29
2023-04-22T14:06:21.013Z,16.65
2023-04-22T14:08:49.316Z,16.32
2023-04-22T14:11:17.706Z,16.06
2023-04-22T14:13:46.723Z,15.81
2023-04-22T14:16:15.843Z,15.27
2023-04-22T14:18:45.862Z,15.19
2023-04-22T14:21:14.566Z,14.71
2023-04-22T14:23:44.225Z,15.18
2023-04-22T14:26:13.949Z,15.20
2023-04-22T14:28:43.109Z,15.32
2023-04-22T14:31:11.981Z,15.01
2023-04-22T14:33:40.395Z,14.85
2023-04-22T14:36:08.979Z,15.02
2023-04-22T14:38:37.227Z,14.98
2023-04-22T14:41:07.273Z,15.11
2023-04-22T14:43:36.270Z,14.75
2023-04-22T14:46:04.935Z,14.97
2023-04-22T14:48:35.533Z,14.85
2023-04-22T14:51:03.927Z,15.18
2023-04-22T14:53:32.576Z,15.03
2023-04-22T14:56:01.063Z,14.81
2023-04-22T14:58:31.952Z,14.90
2023-04-22T15:01:00.388Z,15.35
2023-04-22T15:03:29.020Z,15.13
2023-04-22T15:05:58.242Z,15.41
2023-04-22T15:08:26.590Z,15.35
2023-04-22T15:10:54.992Z,14.99
2023-04-22T15:13:23.326Z,15.21
2023-04-22T15:15:53.143Z,15.00
2023-04-22T15:18:21.438Z,14.56
2023-04-22T15:20:49.822Z,14.80
2023-04-22T15:23:18.103Z,14.85
2023-04-22T15:25:56.685Z,14.56
2023-04-22T15:28:25.275Z,14.51
2023-04-22T15:30:53.517Z,14.70
2023-04-22T15:33:21.837Z,14.46
2023-04-22T15:35:50.694Z,14.25
2023-04-22T15:38:19.154Z,14.29
2023-04-22T15:40:47.520Z,14.36
2023-04-22T15:43:17.211Z,14.33
2023-04-22T15:45:45.492Z,14.46
2023-04-22T15:48:13.807Z,14.82
2023-04-22T15:50:42.114Z,15.19
2023-04-22T15:53:10.564Z,15.24
2023-04-22T15:55:38.871Z,15.24
2023-04-22T15:58:07.211Z,14.69
2023-04-22T16:00:37.328Z,14.85
2023-04-22T16:03:06.217Z,14.88
2023-04-22T16:05:34.842Z,14.67
2023-04-22T16:08:03.778Z,14.60
2023-04-22T16:10:31.983Z,14.70
2023-04-22T16:13:00.251Z,14.98
2023-04-22T16:15:28.584Z,14.78
2023-04-22T16:17:58.392Z,13.78
2023-04-22T16:20:26.785Z,13.76
2023-04-22T16:22:55.078Z,13.44
2023-04-22T16:25:23.617Z,13.24
2023-04-22T16:27:52.119Z,13.24
2023-04-22T16:30:20.602Z,13.01
2023-04-22T16:32:49.075Z,13.12
2023-04-22T16:35:18.834Z,13.30
2023-04-22T16:37:48.608Z,13.17
2023-04-22T16:40:16.918Z,13.04
2023-04-22T16:42:45.254Z,13.13
2023-04-22T16:45:13.653Z,12.96
2023-04-22T16:47:41.937Z,13.25
2023-04-22T16:50:12.484Z,13.27
2023-04-22T16:52:42.356Z,13.40
2023-04-22T16:55:10.848Z,13.64
2023-04-22T16:57:39.123Z,13.49
2023-04-22T17:00:08.670Z,13.67
2023-04-22T17:02:37.209Z,13.89
2023-04-22T17:05:06.206Z,13.83
2023-04-22T17:07:34.458Z,14.18
2023-04-22T17:10:04.307Z,14.02
2023-04-22T17:12:32.648Z,14.12
2023-04-22T17:15:00.980Z,14.35
2023-04-22T17:17:29.233Z,13.93
2023-04-22T17:19:57.609Z,14.09
2023-04-22T17:22:26.152Z,14.07
2023-04-22T17:24:56.750Z,14.37
2023-04-22T17:27:26.518Z,14.49
2023-04-22T17:29:54.956Z,14.49
2023-04-22T17:32:23.373Z,14.53
2023-04-22T17:34:52.046Z,14.47
2023-04-22T17:37:20.383Z,14.55
2023-04-22T17:39:48.653Z,14.33
2023-04-22T17:42:17.843Z,14.68
2023-04-22T17:44:47.681Z,14.73
2023-04-22T17:47:15.999Z,14.75
2023-04-22T17:49:44.280Z,14.72
2023-04-22T17:52:12.626Z,14.38
2023-04-22T17:54:41.152Z,14.32
2023-04-22T17:57:10.917Z,14.20
2023-04-22T17:59:39.469Z,14.24
2023-04-22T18:02:11.680Z,14.23
2023-04-22T18:04:40.044Z,14.26
2023-04-22T18:07:08.315Z,14.30
2023-04-22T18:09:36.577Z,14.41
2023-04-22T18:12:05.913Z,13.88
2023-04-22T18:14:34.350Z,13.99
2023-04-22T18:17:03.261Z,13.81
2023-04-22T18:19:33.067Z,13.73
2023-04-22T18:22:01.911Z,13.64
2023-04-22T18:24:30.107Z,13.66
2023-04-22T18:26:58.491Z,13.17
2023-04-22T18:29:26.833Z,13.22
2023-04-22T18:31:55.181Z,13.05
2023-04-22T18:34:23.746Z,12.70
2023-04-22T18:36:53.418Z,12.27
2023-04-22T18:39:22.346Z,12.51
2023-04-22T18:41:50.659Z,12.13
2023-04-22T18:44:19.215Z,12.46
2023-04-22T18:46:47.688Z,12.60
2023-04-22T18:49:15.943Z,12.74
2023-04-22T18:51:44.440Z,13.06
2023-04-22T18:54:32.619Z,12.75
2023-04-22T18:57:01.051Z,12.53
2023-04-22T18:59:29.422Z,12.60
2023-04-22T19:01:57.771Z,12.33
2023-04-22T19:04:26.372Z,12.21
2023-04-22T19:06:57.212Z,12.45
2023-04-22T19:09:27.108Z,12.20
2023-04-22T19:11:55.465Z,12.98
2023-04-22T19:14:23.906Z,12.81
2023-04-22T19:16:52.250Z,12.84
2023-04-22T19:19:20.651Z,12.83
2023-04-22T19:21:48.949Z,12.84
2023-04-22T19:24:17.202Z,12.13
2023-04-22T19:26:47.272Z,11.90
2023-04-22T19:29:17.123Z,11.37
2023-04-22T19:31:46.233Z,11.55
2023-04-22T19:34:16.097Z,11.40
2023-04-22T19:36:44.410Z,11.34
2023-04-22T19:39:12.803Z,11.72
2023-04-22T19:41:41.115Z,11.96
2023-04-22T19:44:10.846Z,12.04
2023-04-22T19:46:39.558Z,12.04
2023-04-22T19:49:08.708Z,11.95
2023-04-22T19:51:37.868Z,11.83
2023-04-22T19:54:07.686Z,11.79
2023-04-22T19:56:37.402Z,11.95
2023-04-22T19:59:06.763Z,12.03
2023-04-22T20:01:37.478Z,11.88
2023-04-22T20:04:06.749Z,11.78
2023-04-22T20:06:35.273Z,11.80
2023-04-22T20:09:05.554Z,11.99
2023-04-22T20:11:34.170Z,12.21
2023-04-22T20:14:03.473Z,12.36
2023-04-22T20:16:32.526Z,12.17
2023-04-22T20:19:02.466Z,12.17
2023-04-22T20:21:32.659Z,12.06
2023-04-22T20:24:04.092Z,12.23
2023-04-22T20:26:33.329Z,12.18
2023-04-22T20:29:02.085Z,12.24
2023-04-22T20:31:30.779Z,12.28
2023-04-22T20:33:59.271Z,12.24
2023-04-22T20:36:30.771Z,12.02
2023-04-22T20:39:05.271Z,11.98
2023-04-22T20:41:38.842Z,11.61
2023-04-22T20:44:07.897Z,11.64
2023-04-22T20:46:37.540Z,11.56
2023-04-22T20:49:05.991Z,11.54
2023-04-22T20:51:35.690Z,10.38
2023-04-22T20:54:06.163Z,11.56
2023-04-22T20:56:38.391Z,11.72
2023-04-22T20:59:07.701Z,11.75
2023-04-22T21:01:36.216Z,11.73
2023-04-22T21:04:05.013Z,11.02
2023-04-22T21:06:36.262Z,11.57
2023-04-22T21:09:07.463Z,11.26
2023-04-22T21:11:36.470Z,10.80
2023-04-22T21:14:05.200Z,10.64
2023-04-22T21:16:36.023Z,10.30
2023-04-22T21:19:07.884Z,10.49
2023-04-22T21:21:38.690Z,10.24
2023-04-22T21:24:07.959Z,10.18
2023-04-22T21:26:40.210Z,10.49
2023-04-22T21:29:09.060Z,10.67
2023-04-22T21:31:37.994Z,10.77
2023-04-22T21:34:08.661Z,10.78
2023-04-22T21:36:38.402Z,10.78
2023-04-22T21:39:08.430Z,11.07
2023-04-22T21:41:36.934Z,11.03
2023-04-22T21:44:05.337Z,10.52
2023-04-22T21:46:33.685Z,10.57
2023-04-22T21:49:01.989Z,10.45
2023-04-22T21:51:34.342Z,10.57
2023-04-22T21:54:04.144Z,10.68
2023-04-22T21:56:33.723Z,10.78
2023-04-22T21:59:01.993Z,10.97
2023-04-22T22:01:30.267Z,10.93
2023-04-22T22:03:58.917Z,10.83
2023-04-22T22:06:28.577Z,10.95
2023-04-22T22:08:56.848Z,11.05
2023-04-22T22:11:30.827Z,10.97
2023-04-22T22:14:00.271Z,11.04
2023-04-22T22:16:28.558Z,10.97
2023-04-22T22:18:57.980Z,10.89
2023-04-22T22:21:26.313Z,10.90
2023-04-22T22:23:54.616Z,10.95
2023-04-22T22:26:23.011Z,10.93
2023-04-22T22:28:52.825Z,10.87
2023-04-22T22:31:21.152Z,10.60
2023-04-22T22:33:49.399Z,10.83
2023-04-22T22:36:17.767Z,10.70
2023-04-22T22:38:46.219Z,10.77
2023-04-22T22:41:14.588Z,10.67
2023-04-22T22:43:42.786Z,10.60
2023-04-22T22:46:12.603Z,10.56
2023-04-22T22:48:41.065Z,10.42
2023-04-22T22:51:09.580Z,10.52
2023-04-22T22:53:38.023Z,10.64
2023-04-22T22:56:06.791Z,10.14
2023-04-22T22:58:36.319Z,9.78
2023-04-22T23:01:05.217Z,9.39
2023-04-22T23:03:37.302Z,9.21
2023-04-22T23:06:06.590Z,9.57
2023-04-22T23:08:34.873Z,9.96
2023-04-22T23:11:03.285Z,9.75
2023-04-22T23:13:31.586Z,9.25
2023-04-22T23:15:59.857Z,9.04
2023-04-22T23:18:29.822Z,8.72
2023-04-22T23:21:01.309Z,8.66
2023-04-22T23:23:30.317Z,8.95
2023-04-22T23:26:00.954Z,8.83
2023-04-22T23:28:29.651Z,8.81
2023-04-22T23:30:58.959Z,8.90
2023-04-22T23:33:27.824Z,9.12
2023-04-22T23:35:58.134Z,9.59
2023-04-22T23:38:29.253Z,9.59
2023-04-22T23:40:57.588Z,9.27
2023-04-22T23:43:25.893Z,9.28
2023-04-22T23:45:54.261Z,9.16
2023-04-22T23:48:22.722Z,9.17
2023-04-22T23:50:51.038Z,9.49
2023-04-22T23:53:19.251Z,9.68
2023-04-22T23:55:49.585Z,9.67
2023-04-22T23:58:18.085Z,9.75
